Latest Weather Observations for Browse Island

IDW60801

Issued at 6:32 am WST Sunday 21 December 2014 (issued every 30 minutes, with the page automatically refreshed every 10 minutes)

About weather observations | Map of weather stations | Latest weather observations for WA | Other Formats
Station Details ID: 200784 Name: BROWSE ISLAND Lat: -14.11 Lon: 123.55 Height: 3.7 m
Data from the previous 72 hours. | See also: Recent months for locations in Western Australia
Date/Time
WST
Temp
°C
App
Temp
°C
Dew
Point
Rel
Hum
%
Delta-T
°C
Wind Press
QNH
hPa
Press
MSL
hPa
Rain
since 9 am
mm
Dir
 
Spd
km/h
Gust
km/h
Spd
kts
Gust
kts
21/06:30am 29.0 - - - - SW 11 13 6 7 1008.0 - -
21/06:00am 29.3 - - - - WSW 9 11 5 6 1008.0 1007.9 -
21/05:30am 29.0 - - - - WSW 11 - 6 - 1007.0 - -
21/05:00am 29.3 - - - - WSW 11 - 6 - 1007.0 1007.2 -
21/04:30am 29.0 - - - - W 9 - 5 - 1007.0 - -
21/04:00am 29.3 - - - - W 7 - 4 - 1006.0 1006.8 -
21/03:30am 29.0 - - - - W 7 - 4 - 1006.0 - -
21/03:00am 29.4 - - - - SW 7 - 4 - 1006.0 1006.6 -
21/02:30am 29.0 - - - - WSW 6 - 3 - 1006.0 - -
21/02:00am 29.4 - - - - CALM 0 - 0 - 1006.0 1006.6 -
21/01:30am 30.0 - - - - S 6 - 3 - 1006.0 - -
21/01:00am 29.7 - - - - S 6 - 3 - 1006.0 1006.8 -
21/12:30am 30.0 - - - - SSE 6 - 3 - 1007.0 - -
21/12:00am 29.7 - - - - ESE 4 4 2 2 1007.0 1007.8 -
 
Date/Time
WST
Temp
°C
App
Temp
°C
Dew
Point
Rel
Hum
%
Delta-T
°C
Wind Press
QNH
hPa
Press
MSL
hPa
Rain
since 9 am
mm
Dir
 
Spd
km/h
Gust
km/h
Spd
kts
Gust
kts
20/11:30pm 30.0 - - - - SE 6 - 3 - 1008.0 - -
20/11:00pm 29.9 - - - - SE 9 - 5 - 1009.0 1008.9 -
20/10:30pm 30.0 - - - - E 6 - 3 - 1009.0 - -
20/10:00pm 30.0 - - - - SE 4 - 2 - 1009.0 1008.9 -
20/09:30pm 30.0 - - - - E 2 - 1 - 1008.0 - -
20/09:00pm 30.1 - - - - SSE 7 - 4 - 1008.0 1008.7 -
20/08:30pm 30.0 - - - - SE 7 - 4 - 1008.0 - -
20/08:00pm 29.9 - - - - SE 9 - 5 - 1008.0 1008.0 -
20/07:30pm 30.0 - - - - SE 13 - 7 - 1008.0 - -
20/07:00pm 29.9 - - - - SSE 15 - 8 - 1007.0 1007.4 -
20/06:30pm 30.0 - - - - SSE 15 - 8 - 1006.0 - -
20/06:00pm 29.8 - - - - S 19 20 10 11 1006.0 1006.3 -
20/05:30pm 30.0 - - - - SSE 22 - 12 - 1006.0 - -
20/05:00pm 30.0 - - - - S 22 - 12 - 1006.0 1006.2 -
20/04:30pm 30.0 - - - - S 22 - 12 - 1005.0 - -
20/04:00pm 30.2 - - - - S 22 - 12 - 1006.0 1006.0 -
20/03:30pm 30.0 - - - - S 26 - 14 - 1006.0 - -
20/03:00pm 30.2 - - - - S 22 - 12 - 1006.0 1006.4 -
20/02:30pm 31.0 - - - - S 20 - 11 - 1006.0 - -
20/02:00pm 30.4 - - - - S 19 - 10 - 1007.0 1006.9 -
20/01:30pm 31.0 - - - - S 19 - 10 - 1007.0 - -
20/01:00pm 30.8 - - - - S 13 - 7 - 1007.0 1007.5 -
20/12:30pm 31.0 - - - - S 17 - 9 - 1008.0 - -
20/12:00pm 30.5 - - - - S 17 - 9 - 1008.0 1008.6 -
20/11:30am 31.0 - - - - S 15 - 8 - 1009.0 - -
20/11:00am 30.6 - - - - S 11 - 6 - 1009.0 1009.2 -
20/10:30am 31.0 - - - - S 11 - 6 - 1009.0 - -
20/10:00am 30.5 - - - - S 13 - 7 - 1010.0 1010.0 -
20/09:30am 30.0 - - - - S 13 - 7 - 1010.0 - -
20/09:00am 30.6 - - - - S 13 - 7 - 1010.0 1010.6 -
20/08:30am 31.0 - - - - SSE 13 - 7 - 1010.0 - -
20/08:00am 30.2 - - - - SSE 15 - 8 - 1010.0 1010.5 -
20/07:30am 30.0 - - - - S 13 - 7 - 1010.0 - -
20/07:00am 29.9 - - - - S 11 - 6 - 1009.0 1009.6 -
20/06:30am 30.0 - - - - S 13 - 7 - 1009.0 - -
20/06:00am 29.8 - - - - S 11 - 6 - 1009.0 1009.0 -
20/05:30am 30.0 - - - - SSW 13 - 7 - 1008.0 - -
20/05:00am 29.6 - - - - SW 13 - 7 - 1008.0 1008.2 -
20/04:30am 30.0 - - - - SW 13 - 7 - 1008.0 - -
20/04:00am 29.7 - - - - SSW 15 - 8 - 1008.0 1008.0 -
20/03:30am 30.0 - - - - SW 17 - 9 - 1008.0 - -
20/03:00am 29.8 - - - - SW 17 - 9 - 1008.0 1008.0 -
20/02:30am 30.0 - - - - WSW 17 - 9 - 1008.0 - -
20/02:00am 29.8 - - - - WSW 17 - 9 - 1008.0 1008.0 -
20/01:30am 30.0 - - - - W 15 - 8 - 1008.0 - -
20/01:00am 30.0 - - - - WSW 15 - 8 - 1008.0 1008.4 -
20/12:30am 30.0 - - - - WSW 19 - 10 - 1008.0 - -
20/12:00am 30.1 - - - - WSW 17 - 9 - 1009.0 1009.4 -
 
Date/Time
WST
Temp
°C
App
Temp
°C
Dew
Point
Rel
Hum
%
Delta-T
°C
Wind Press
QNH
hPa
Press
MSL
hPa
Rain
since 9 am
mm
Dir
 
Spd
km/h
Gust
km/h
Spd
kts
Gust
kts
19/11:30pm 30.0 - - - - W 17 - 9 - 1009.0 - -
19/11:00pm 30.3 - - - - W 17 - 9 - 1010.0 1010.0 -
19/10:30pm 30.0 - - - - W 17 - 9 - 1010.0 - -
19/10:00pm 30.3 - - - - W 17 - 9 - 1010.0 1010.0 -
19/09:30pm 30.0 - - - - W 17 - 9 - 1010.0 - -
19/09:00pm 30.3 - - - - W 17 - 9 - 1009.0 1009.7 -
19/08:30pm 30.0 - - - - WSW 17 - 9 - 1009.0 - -
19/08:00pm 30.4 - - - - WSW 13 - 7 - 1009.0 1009.6 -
19/07:30pm 31.0 - - - - SW 13 - 7 - 1009.0 - -
19/07:00pm 30.6 - - - - SW 15 - 8 - 1009.0 1009.4 -
19/06:30pm 31.0 - - - - SW 15 - 8 - 1009.0 - -
19/06:00pm 30.6 - - - - SW 13 - 7 - 1008.0 1008.8 -
19/05:30pm 31.0 - - - - SSW 11 - 6 - 1008.0 - -
19/05:00pm 30.7 - - - - SW 13 - 7 - 1007.0 1007.6 -
19/04:30pm 31.0 - - - - WSW 11 - 6 - 1007.0 - -
19/04:00pm 30.8 - - - - SW 11 - 6 - 1007.0 1007.1 -
19/03:30pm 31.0 - - - - SW 11 - 6 - 1007.0 - -
19/03:00pm 30.7 - - - - SW 15 - 8 - 1007.0 1007.5 -
19/02:30pm 31.0 - - - - S 13 - 7 - 1008.0 - -
19/02:00pm 30.7 - - - - SSW 11 - 6 - 1008.0 1008.5 -
19/01:30pm 31.0 - - - - S 11 - 6 - 1008.0 - -
19/01:00pm 30.8 - - - - SSW 13 - 7 - 1009.0 1009.1 -
19/12:30pm 32.0 - - - - S 13 - 7 - 1009.0 - -
19/12:00pm 30.5 - - - - S 13 - 7 - 1010.0 1010.0 -
19/11:30am 31.0 - - - - S 15 - 8 - 1010.0 - -
19/11:00am 30.8 - - - - S 13 - 7 - 1010.0 1010.5 -
19/10:30am 31.0 - - - - S 13 - 7 - 1010.0 - -
19/10:00am 30.7 - - - - S 9 - 5 - 1010.0 1010.8 -
19/09:30am 31.0 - - - - SW 7 - 4 - 1010.0 - -
19/09:00am 31.1 - - - - W 7 - 4 - 1010.0 1010.6 -
19/08:30am 31.0 - - - - WNW 9 - 5 - 1010.0 - -
19/08:00am 30.2 - - - - NW 9 - 5 - 1009.0 1009.8 -
19/07:30am 30.0 - - - - N 9 - 5 - 1009.0 - -
19/07:00am 30.3 - - - - N 13 - 7 - 1009.0 1009.0 -
19/06:30am 30.0 - - - - NNE 9 - 5 - 1008.0 - -
19/06:00am 29.6 - - - - NNE 11 - 6 - 1008.0 1008.5 -
19/05:30am 30.0 - - - - NNE 11 - 6 - 1008.0 - -
19/05:00am 29.6 - - - - E 7 - 4 - 1008.0 1008.4 -
19/04:30am 30.0 - - - - ESE 13 - 7 - 1008.0 - -
19/04:00am 29.7 - - - - SE 17 - 9 - 1008.0 1008.1 -
19/03:30am 29.0 - - - - SE 17 - 9 - 1008.0 - -
19/03:00am 29.4 - - - - SE 15 - 8 - 1008.0 1008.1 -
19/02:30am 30.0 - - - - ESE 20 - 11 - 1008.0 - -
19/02:00am 29.8 - - - - SE 19 - 10 - 1009.0 1009.1 -
19/01:30am 30.0 - - - - ESE 22 - 12 - 1009.0 - -
19/01:00am 29.7 - - - - ESE 24 - 13 - 1009.0 1009.7 -
19/12:30am 30.0 - - - - SE 20 - 11 - 1009.0 - -
19/12:00am 30.0 - - - - SSE 22 - 12 - 1010.0 1010.1 -
 
Date/Time
WST
Temp
°C
App
Temp
°C
Dew
Point
Rel
Hum
%
Delta-T
°C
Wind Press
QNH
hPa
Press
MSL
hPa
Rain
since 9 am
mm
Dir
 
Spd
km/h
Gust
km/h
Spd
kts
Gust
kts
18/11:30pm 30.0 - - - - SE 17 - 9 - 1010.0 - -
18/11:00pm 29.9 - - - - SSE 13 - 7 - 1010.0 1010.4 -
18/10:30pm 30.0 - - - - S 11 - 6 - 1010.0 - -
18/10:00pm 29.9 - - - - SSW 9 - 5 - 1010.0 1010.1 -
18/09:30pm 30.0 - - - - SSW 7 - 4 - 1009.0 - -
18/09:00pm 30.0 - - - - SSW 11 - 6 - 1009.0 1009.4 -
18/08:30pm 30.0 - - - - SSW 13 - 7 - 1009.0 - -
18/08:00pm 30.1 - - - - SW 11 - 6 - 1009.0 1008.9 -
18/07:30pm 30.0 - - - - SW 11 - 6 - 1008.0 - -
18/07:00pm 30.0 - - - - SW 11 - 6 - 1008.0 1008.0 -
18/06:30pm 30.0 - - - - SW 13 - 7 - 1007.0 - -
18/06:00pm 30.1 - - - - SW 13 - 7 - 1007.0 1007.5 -
18/05:30pm 30.0 - - - - WSW 13 - 7 - 1007.0 - -
18/05:00pm 30.4 - - - - WSW 11 - 6 - 1006.0 1006.5 -
18/04:30pm 31.0 - - - - WSW 13 - 7 - 1006.0 - -
18/04:00pm 30.4 - - - - SW 13 - 7 - 1006.0 1006.2 -
18/03:30pm 30.0 - - - - SSW 13 - 7 - 1006.0 - -
18/03:00pm 30.4 - - - - SSW 13 - 7 - 1006.0 1006.4 -
18/02:30pm 30.0 - - - - S 15 - 8 - 1007.0 - -
18/02:00pm 30.3 - - - - SSW 13 - 7 - 1007.0 1007.6 -
18/01:30pm 30.0 - - - - SSW 13 - 7 - 1008.0 - -
18/01:00pm 30.4 - - - - S 13 - 7 - 1008.0 1008.7 -
18/12:30pm 30.0 - - - - S 15 - 8 - 1008.0 - -
18/12:00pm 30.4 - - - - S 15 - 8 - 1009.0 1008.9 -
18/11:30am 30.0 - - - - S 15 - 8 - 1009.0 - -
18/11:00am 30.1 - - - - S 15 - 8 - 1009.0 1009.2 -
18/10:30am 30.0 - - - - SSW 15 - 8 - 1009.0 - -
18/10:00am 30.0 - - - - SSW 17 - 9 - 1009.0 1009.6 -
18/09:30am 30.0 - - - - SSW 15 - 8 - 1009.0 - -
18/09:00am 29.8 - - - - S 17 - 9 - 1009.0 1009.6 -
18/08:30am 30.0 - - - - S 17 - 9 - 1009.0 - -
18/08:00am 29.8 - - - - SSW 15 - 8 - 1009.0 1009.3 -
18/07:30am 30.0 - - - - SW 17 - 9 - 1009.0 - -
18/07:00am 29.6 - - - - SSW 17 - 9 - 1009.0 1009.1 -

Other Formats:

Comma delimited format used in spreadsheet applications
http://www.bom.gov.au/fwo/IDW60801/IDW60801.94103.axf

JavaScript Object Notation format (JSON) in row-major order
http://www.bom.gov.au/fwo/IDW60801/IDW60801.94103.json